createdAt,value
2019-04-20T00:01:22.790Z,9.80
2019-04-20T00:03:50.691Z,8.90
2019-04-20T00:06:21.518Z,8.50
2019-04-20T00:08:59.815Z,8.30
2019-04-20T00:11:28.331Z,8.10
2019-04-20T00:14:04.164Z,8.00
2019-04-20T00:16:29.317Z,7.80
2019-04-20T00:19:03.146Z,7.60
2019-04-20T00:21:47.070Z,7.60
2019-04-20T00:24:37.569Z,7.50
2019-04-20T00:27:31.342Z,7.50
2019-04-20T00:30:00.337Z,7.60
2019-04-20T00:32:23.256Z,7.50
2019-04-20T00:34:47.266Z,7.30
2019-04-20T00:37:17.308Z,7.20
2019-04-20T00:39:48.783Z,7.20
2019-04-20T00:42:24.826Z,7.00
2019-04-20T00:45:02.345Z,6.80
2019-04-20T00:47:34.827Z,6.80
2019-04-20T00:50:05.550Z,6.80
2019-04-20T00:52:44.476Z,6.80
2019-04-20T00:55:00.068Z,6.90
2019-04-20T00:57:43.040Z,7.00
2019-04-20T01:00:21.584Z,7.00
2019-04-20T01:02:49.573Z,6.90
2019-04-20T01:05:31.000Z,6.70
2019-04-20T01:08:08.221Z,6.50
2019-04-20T01:10:44.984Z,6.20
2019-04-20T01:13:15.164Z,6.10
2019-04-20T01:15:51.534Z,6.00
2019-04-20T01:18:15.227Z,6.00
2019-04-20T01:20:47.385Z,5.90
2019-04-20T01:23:21.304Z,6.00
2019-04-20T01:25:56.877Z,6.00
2019-04-20T01:28:38.410Z,5.90
2019-04-20T01:31:06.517Z,5.80
2019-04-20T01:33:40.412Z,5.60
2019-04-20T01:36:19.863Z,5.70
2019-04-20T01:38:44.648Z,5.90
2019-04-20T01:41:03.353Z,6.00
2019-04-20T01:43:35.339Z,6.10
2019-04-20T01:46:12.056Z,5.90
2019-04-20T01:48:41.228Z,5.90
2019-04-20T01:51:17.520Z,6.00
2019-04-20T01:54:06.535Z,6.10
2019-04-20T01:56:37.305Z,6.10
2019-04-20T01:59:23.028Z,5.90
2019-04-20T02:02:08.039Z,5.60
2019-04-20T02:04:43.120Z,5.20
2019-04-20T02:07:10.693Z,5.00
2019-04-20T02:09:47.492Z,5.00
2019-04-20T02:12:20.147Z,4.90
2019-04-20T02:14:52.222Z,4.80
2019-04-20T02:17:43.527Z,4.80
2019-04-20T02:20:53.246Z,4.80
2019-04-20T02:23:17.595Z,4.70
2019-04-20T02:25:35.845Z,4.70
2019-04-20T02:28:24.275Z,4.70
2019-04-20T02:31:23.082Z,4.70
2019-04-20T02:33:54.291Z,4.60
2019-04-20T02:36:51.142Z,4.70
2019-04-20T02:42:07.924Z,4.80
2019-04-20T02:44:40.401Z,4.70
2019-04-20T02:47:13.989Z,4.60
2019-04-20T02:49:40.491Z,4.60
2019-04-20T02:54:46.736Z,4.30
2019-04-20T02:57:20.608Z,4.30
2019-04-20T03:00:05.688Z,4.20
2019-04-20T03:02:10.223Z,4.10
2019-04-20T03:04:31.713Z,3.90
2019-04-20T03:07:11.895Z,4.00
2019-04-20T03:09:51.518Z,4.10
2019-04-20T03:12:29.187Z,4.00
2019-04-20T03:14:52.535Z,3.90
2019-04-20T03:17:40.958Z,3.80
2019-04-20T03:20:06.236Z,3.70
2019-04-20T03:23:17.499Z,3.60
2019-04-20T03:25:55.250Z,3.40
2019-04-20T03:28:28.036Z,3.40
2019-04-20T03:33:51.490Z,3.50
2019-04-20T03:36:16.225Z,3.30
2019-04-20T03:38:38.311Z,3.60
2019-04-20T03:40:59.542Z,3.60
2019-04-20T03:43:20.161Z,3.60
2019-04-20T03:45:57.718Z,3.60
2019-04-20T03:48:41.016Z,3.60
2019-04-20T03:51:18.087Z,3.60
2019-04-20T03:54:05.158Z,3.60
2019-04-20T03:56:57.090Z,3.30
2019-04-20T03:59:39.163Z,3.00
2019-04-20T04:05:04.387Z,3.40
2019-04-20T04:07:30.443Z,3.40
2019-04-20T04:10:09.798Z,3.40
2019-04-20T04:13:07.155Z,3.40
2019-04-20T04:15:46.756Z,3.30
2019-04-20T04:18:17.832Z,3.20
2019-04-20T04:20:51.284Z,3.00
2019-04-20T04:23:35.626Z,2.90
2019-04-20T04:26:22.104Z,2.80
2019-04-20T04:28:37.282Z,2.70
2019-04-20T04:31:12.119Z,2.70
2019-04-20T04:34:02.387Z,2.70
2019-04-20T04:36:30.128Z,2.70
2019-04-20T04:39:14.997Z,2.60
2019-04-20T04:41:52.302Z,2.80
2019-04-20T04:44:22.615Z,2.90
2019-04-20T04:46:44.611Z,3.10
2019-04-20T04:49:20.137Z,3.20
2019-04-20T04:51:53.505Z,3.20
2019-04-20T04:54:40.109Z,3.20
2019-04-20T04:57:07.171Z,3.30
2019-04-20T04:59:38.427Z,3.40
2019-04-20T05:02:09.685Z,3.50
2019-04-20T05:05:41.272Z,3.60
2019-04-20T05:08:02.871Z,3.60
2019-04-20T05:10:24.681Z,3.70
2019-04-20T05:12:54.860Z,3.80
2019-04-20T05:15:37.382Z,3.80
2019-04-20T05:18:18.324Z,3.80
2019-04-20T05:20:55.780Z,3.90
2019-04-20T05:23:38.800Z,4.00
2019-04-20T05:26:30.063Z,4.10
2019-04-20T05:29:00.702Z,4.40
2019-04-20T05:31:31.002Z,4.50
2019-04-20T05:34:20.572Z,4.60
2019-04-20T05:36:51.809Z,4.80
2019-04-20T05:39:26.870Z,5.10
2019-04-20T05:41:53.178Z,5.30
2019-04-20T05:44:42.807Z,5.70
2019-04-20T05:47:11.231Z,5.70
2019-04-20T05:49:40.215Z,5.90
2019-04-20T05:52:24.402Z,6.00
2019-04-20T05:55:04.387Z,5.90
2019-04-20T05:57:41.941Z,6.10
2019-04-20T06:00:24.694Z,6.50
2019-04-20T06:02:44.105Z,6.70
2019-04-20T06:05:23.971Z,6.80
2019-04-20T06:07:53.485Z,7.40
2019-04-20T06:10:27.531Z,7.40
2019-04-20T06:13:04.745Z,7.50
2019-04-20T06:15:53.868Z,7.70
2019-04-20T06:18:26.915Z,8.00
2019-04-20T06:21:17.263Z,8.30
2019-04-20T06:23:56.394Z,8.30
2019-04-20T06:26:44.213Z,8.50
2019-04-20T06:29:03.140Z,8.70
2019-04-20T06:31:36.107Z,8.90
2019-04-20T06:34:35.043Z,9.10
2019-04-20T06:37:01.042Z,9.30
2019-04-20T06:40:29.347Z,9.30
2019-04-20T06:42:22.529Z,9.50
2019-04-20T06:45:04.234Z,9.70
2019-04-20T06:47:38.843Z,10.00
2019-04-20T06:50:14.191Z,10.30
2019-04-20T06:53:32.447Z,10.20
2019-04-20T06:56:07.339Z,10.30
2019-04-20T06:58:58.937Z,10.30
2019-04-20T07:01:37.377Z,10.50
2019-04-20T07:04:38.325Z,10.50
2019-04-20T07:07:05.298Z,10.70
2019-04-20T07:09:42.093Z,10.80
2019-04-20T07:11:56.822Z,10.90
2019-04-20T07:14:31.873Z,11.00
2019-04-20T07:17:46.011Z,11.20
2019-04-20T07:20:21.308Z,11.20
2019-04-20T07:23:21.378Z,11.40
2019-04-20T07:26:13.796Z,11.40
2019-04-20T07:28:31.299Z,11.60
2019-04-20T07:31:01.824Z,11.60
2019-04-20T07:33:37.244Z,11.80
2019-04-20T07:36:10.899Z,12.00
2019-04-20T07:38:39.939Z,11.80
2019-04-20T07:41:40.229Z,12.10
2019-04-20T07:49:41.612Z,12.30
2019-04-20T07:51:55.468Z,12.40
2019-04-20T07:55:22.550Z,12.60
2019-04-20T07:57:37.699Z,12.80
2019-04-20T08:00:59.244Z,12.90
2019-04-20T08:03:39.473Z,13.00
2019-04-20T08:06:11.521Z,13.00
2019-04-20T08:09:16.093Z,13.40
2019-04-20T08:12:31.544Z,13.50
2019-04-20T08:15:04.959Z,13.40
2019-04-20T08:17:48.364Z,13.50
2019-04-20T08:20:35.537Z,13.90
2019-04-20T08:23:05.078Z,13.80
2019-04-20T08:26:10.998Z,14.00
2019-04-20T08:29:25.447Z,14.40
2019-04-20T08:32:17.938Z,14.20
2019-04-20T08:34:54.344Z,14.60
2019-04-20T08:37:26.588Z,14.80
2019-04-20T08:40:02.997Z,14.90
2019-04-20T08:42:40.310Z,14.90
2019-04-20T08:45:23.710Z,14.80
2019-04-20T08:48:18.868Z,15.00
2019-04-20T08:51:07.329Z,15.00
2019-04-20T08:53:39.381Z,15.10
2019-04-20T08:56:05.920Z,15.40
2019-04-20T08:58:22.556Z,15.30
2019-04-20T09:00:58.682Z,15.50
2019-04-20T09:03:56.466Z,15.60
2019-04-20T09:06:34.718Z,15.90
2019-04-20T09:09:11.762Z,15.90
2019-04-20T09:11:49.135Z,16.40
2019-04-20T09:14:16.334Z,16.30
2019-04-20T09:16:57.017Z,16.70
2019-04-20T09:19:36.759Z,16.90
2019-04-20T09:22:25.516Z,16.80
2019-04-20T09:25:42.839Z,16.90
2019-04-20T09:27:48.776Z,17.10
2019-04-20T09:30:43.815Z,17.00
2019-04-20T09:33:43.888Z,17.40
2019-04-20T09:36:22.570Z,17.20
2019-04-20T09:39:21.616Z,17.50
2019-04-20T09:42:04.849Z,17.70
2019-04-20T09:44:55.996Z,18.10
2019-04-20T09:47:32.602Z,18.00
2019-04-20T09:53:10.165Z,17.90
2019-04-20T09:55:36.328Z,17.90
2019-04-20T09:58:12.644Z,18.10
2019-04-20T10:01:13.524Z,18.40
2019-04-20T10:03:31.068Z,18.30
2019-04-20T10:06:24.723Z,18.90
2019-04-20T10:08:56.336Z,19.60
2019-04-20T10:11:27.521Z,19.80
2019-04-20T10:13:58.528Z,19.30
2019-04-20T10:16:47.685Z,19.20
2019-04-20T10:19:30.011Z,19.60
2019-04-20T10:21:54.891Z,19.70
2019-04-20T10:24:26.584Z,19.90
2019-04-20T10:26:58.900Z,20.30
2019-04-20T10:29:31.302Z,20.00
2019-04-20T10:32:25.092Z,19.90
2019-04-20T10:34:52.833Z,20.50
2019-04-20T10:37:27.432Z,20.50
2019-04-20T10:39:58.536Z,20.20
2019-04-20T10:42:30.127Z,20.40
2019-04-20T10:45:17.172Z,20.80
2019-04-20T10:47:50.678Z,21.10
2019-04-20T10:50:22.977Z,21.00
2019-04-20T10:52:57.066Z,21.10
2019-04-20T10:55:29.372Z,21.60
2019-04-20T10:57:59.809Z,21.60
2019-04-20T11:00:41.975Z,21.50
2019-04-20T11:03:15.760Z,21.10
2019-04-20T11:05:48.941Z,21.30
2019-04-20T11:08:24.405Z,21.30
2019-04-20T11:11:10.865Z,21.80
2019-04-20T11:13:35.329Z,22.00
2019-04-20T11:16:24.758Z,22.00
2019-04-20T11:19:13.886Z,21.70
2019-04-20T11:22:04.212Z,22.70
2019-04-20T11:24:50.386Z,22.50
2019-04-20T11:27:20.651Z,23.60
2019-04-20T11:29:51.909Z,23.70
2019-04-20T11:32:24.183Z,23.10
2019-04-20T11:34:56.469Z,23.40
2019-04-20T11:37:27.324Z,23.80
2019-04-20T11:40:01.361Z,24.10
2019-04-20T11:42:53.292Z,24.40
2019-04-20T11:45:42.796Z,24.00
2019-04-20T11:48:21.286Z,24.10
2019-04-20T11:50:51.760Z,23.50
2019-04-20T11:53:25.185Z,23.90
2019-04-20T11:55:58.566Z,25.00
2019-04-20T11:58:44.893Z,25.10
2019-04-20T12:01:56.499Z,24.80
2019-04-20T12:04:38.151Z,24.10
2019-04-20T12:07:19.008Z,23.90
2019-04-20T12:09:51.497Z,24.70
2019-04-20T12:12:32.994Z,25.50
2019-04-20T12:15:14.767Z,25.90
2019-04-20T12:17:45.477Z,25.20
2019-04-20T12:20:22.819Z,25.50
2019-04-20T12:22:58.363Z,25.90
2019-04-20T12:25:37.897Z,26.50
2019-04-20T12:28:11.593Z,25.80
2019-04-20T12:30:42.031Z,25.90
2019-04-20T12:33:32.592Z,26.20
2019-04-20T12:36:12.578Z,25.60
2019-04-20T12:38:46.130Z,25.20
2019-04-20T12:41:31.132Z,25.30
2019-04-20T12:43:57.082Z,25.60
2019-04-20T12:46:28.243Z,25.90
2019-04-20T12:48:59.698Z,26.20
2019-04-20T12:51:36.664Z,26.10
2019-04-20T12:54:11.118Z,26.40
2019-04-20T12:56:42.501Z,26.30
2019-04-20T12:59:13.819Z,27.60
2019-04-20T13:02:03.050Z,26.70
2019-04-20T13:04:33.705Z,26.30
2019-04-20T13:07:22.757Z,25.50
2019-04-20T13:10:02.683Z,26.90
2019-04-20T13:12:56.391Z,27.30
2019-04-20T13:15:36.455Z,28.00
2019-04-20T13:18:07.489Z,28.00
2019-04-20T13:20:37.697Z,27.70
2019-04-20T13:23:09.251Z,27.50
2019-04-20T13:25:43.297Z,27.00
2019-04-20T13:28:19.211Z,26.40
2019-04-20T13:30:50.115Z,26.60
2019-04-20T13:33:20.807Z,26.60
2019-04-20T13:35:52.335Z,27.20
2019-04-20T13:38:22.796Z,27.20
2019-04-20T13:40:53.624Z,27.00
2019-04-20T13:43:24.194Z,26.90
2019-04-20T13:45:55.126Z,27.30
2019-04-20T13:48:26.664Z,27.00
2019-04-20T13:51:00.206Z,27.60
2019-04-20T13:53:37.119Z,27.80
2019-04-20T13:56:07.858Z,27.80
2019-04-20T13:58:56.175Z,28.10
2019-04-20T14:01:46.640Z,27.90
2019-04-20T14:04:23.124Z,27.50
2019-04-20T14:06:55.221Z,29.10
2019-04-20T14:09:25.675Z,28.50
2019-04-20T14:12:04.735Z,28.20
2019-04-20T14:14:30.932Z,28.50
2019-04-20T14:17:01.368Z,29.40
2019-04-20T14:19:31.515Z,29.50
2019-04-20T14:22:02.141Z,29.60
2019-04-20T14:24:33.168Z,29.30
2019-04-20T14:27:13.025Z,29.30
2019-04-20T14:29:43.458Z,28.90
2019-04-20T14:32:18.692Z,30.40
2019-04-20T14:34:49.049Z,29.70
2019-04-20T14:37:27.132Z,29.50
2019-04-20T14:39:58.504Z,28.70
2019-04-20T14:42:36.463Z,28.10
2019-04-20T14:45:01.980Z,28.60
2019-04-20T14:47:33.949Z,28.60
2019-04-20T14:50:07.520Z,29.10
2019-04-20T14:52:37.909Z,29.90
2019-04-20T14:55:08.436Z,29.30
2019-04-20T14:57:39.446Z,29.50
2019-04-20T15:00:32.222Z,28.50
2019-04-20T15:03:21.813Z,28.40
2019-04-20T15:05:55.762Z,29.10
2019-04-20T15:08:26.955Z,29.40
2019-04-20T15:10:58.799Z,27.40
2019-04-20T15:13:28.993Z,28.00
2019-04-20T15:15:59.200Z,27.60
2019-04-20T15:18:39.789Z,27.50
2019-04-20T15:21:11.491Z,27.70
2019-04-20T15:23:41.691Z,27.90
2019-04-20T15:26:12.794Z,28.10
2019-04-20T15:28:44.122Z,28.40
2019-04-20T15:31:14.408Z,28.60
2019-04-20T15:33:45.287Z,28.70
2019-04-20T15:36:18.015Z,28.20
2019-04-20T15:38:49.620Z,28.50
2019-04-20T15:41:20.808Z,28.50
2019-04-20T15:43:53.234Z,28.40
2019-04-20T15:46:23.885Z,29.30
2019-04-20T15:48:54.041Z,29.70
2019-04-20T15:51:25.758Z,29.60
2019-04-20T15:53:57.649Z,28.40
2019-04-20T15:56:29.100Z,28.70
2019-04-20T15:59:02.145Z,30.00
2019-04-20T16:01:36.653Z,29.10
2019-04-20T16:04:21.601Z,29.00
2019-04-20T16:06:45.270Z,28.60
2019-04-20T16:09:15.908Z,28.20
2019-04-20T16:11:46.796Z,27.90
2019-04-20T16:14:17.510Z,27.50
2019-04-20T16:16:48.590Z,27.60
2019-04-20T16:19:34.569Z,28.30
2019-04-20T16:22:01.767Z,28.00
2019-04-20T16:24:37.625Z,27.40
2019-04-20T16:27:16.046Z,27.50
2019-04-20T16:29:47.391Z,27.40
2019-04-20T16:32:18.479Z,27.60
2019-04-20T16:34:58.268Z,28.70
2019-04-20T16:37:28.982Z,27.80
2019-04-20T16:39:59.129Z,27.50
2019-04-20T16:42:32.085Z,27.30
2019-04-20T16:45:03.272Z,27.50
2019-04-20T16:47:37.266Z,27.40
2019-04-20T16:50:08.759Z,27.20
2019-04-20T16:52:39.207Z,27.00
2019-04-20T16:55:11.287Z,26.70
2019-04-20T16:57:41.783Z,27.00
2019-04-20T17:00:13.878Z,27.20
2019-04-20T17:02:44.579Z,26.60
2019-04-20T17:05:18.947Z,26.40
2019-04-20T17:07:50.962Z,26.50
2019-04-20T17:10:23.722Z,26.40
2019-04-20T17:12:55.636Z,26.00
2019-04-20T17:15:30.287Z,26.10
2019-04-20T17:18:01.447Z,26.00
2019-04-20T17:20:40.988Z,26.00
2019-04-20T17:23:10.826Z,25.80
2019-04-20T17:25:41.938Z,26.20
2019-04-20T17:28:33.078Z,25.70
2019-04-20T17:31:22.345Z,26.00
2019-04-20T17:34:06.602Z,25.80
2019-04-20T17:36:32.696Z,25.10
2019-04-20T17:39:06.725Z,25.10
2019-04-20T17:41:56.007Z,24.80
2019-04-20T17:44:27.897Z,24.70
2019-04-20T17:46:48.000Z,24.80
2019-04-20T17:49:28.296Z,24.80
2019-04-20T17:52:05.170Z,24.60
2019-04-20T17:54:33.483Z,24.60
2019-04-20T17:57:07.829Z,24.40
2019-04-20T17:59:40.054Z,23.70
2019-04-20T18:02:53.513Z,23.60
2019-04-20T18:05:39.078Z,22.90
2019-04-20T18:08:10.321Z,22.40
2019-04-20T18:10:35.332Z,21.80
2019-04-20T18:12:56.479Z,21.20
2019-04-20T18:15:40.793Z,20.90
2019-04-20T18:18:42.225Z,20.20
2019-04-20T18:21:21.436Z,19.90
2019-04-20T18:23:54.130Z,19.60
2019-04-20T18:26:45.337Z,19.50
2019-04-20T18:29:16.580Z,19.50
2019-04-20T18:31:57.744Z,19.30
2019-04-20T18:34:53.022Z,18.50
2019-04-20T18:37:21.485Z,17.90
2019-04-20T18:39:58.902Z,17.50
2019-04-20T18:42:32.925Z,17.30
2019-04-20T18:45:28.351Z,17.20
2019-04-20T18:48:04.391Z,16.90
2019-04-20T18:50:22.371Z,16.50
2019-04-20T18:52:47.672Z,16.20
2019-04-20T18:55:27.491Z,16.00
2019-04-20T18:57:50.914Z,15.70
2019-04-20T19:00:28.746Z,15.60
2019-04-20T19:02:57.676Z,15.50
2019-04-20T19:05:27.548Z,15.30
2019-04-20T19:08:03.378Z,15.10
2019-04-20T19:10:35.986Z,14.90
2019-04-20T19:13:07.993Z,14.70
2019-04-20T19:16:17.563Z,14.40
2019-04-20T19:18:57.439Z,14.30
2019-04-20T19:21:15.164Z,14.10
2019-04-20T19:23:55.945Z,14.00
2019-04-20T19:26:21.262Z,13.80
2019-04-20T19:28:54.458Z,13.60
2019-04-20T19:31:41.406Z,13.40
2019-04-20T19:34:11.850Z,13.30
2019-04-20T19:36:34.768Z,13.10
2019-04-20T19:39:17.276Z,12.90
2019-04-20T19:41:41.792Z,12.50
2019-04-20T19:44:13.081Z,12.10
2019-04-20T19:46:53.696Z,11.80
2019-04-20T19:49:19.265Z,11.60
2019-04-20T19:52:12.166Z,11.50
2019-04-20T19:54:39.016Z,11.40
2019-04-20T19:56:58.786Z,11.30
2019-04-20T19:59:23.325Z,11.30
2019-04-20T20:01:47.671Z,11.20
2019-04-20T20:04:19.582Z,11.10
2019-04-20T20:06:56.206Z,11.10
2019-04-20T20:09:22.005Z,11.10
2019-04-20T20:11:56.121Z,10.90
2019-04-20T20:14:30.619Z,10.90
2019-04-20T20:17:13.998Z,10.80
2019-04-20T20:20:02.736Z,10.60
2019-04-20T20:22:17.429Z,10.60
2019-04-20T20:24:38.894Z,10.50
2019-04-20T20:27:20.675Z,10.40
2019-04-20T20:29:54.225Z,10.40
2019-04-20T20:32:22.560Z,10.40
2019-04-20T20:34:50.865Z,10.40
2019-04-20T20:37:29.602Z,10.50
2019-04-20T20:39:59.704Z,10.70
2019-04-20T20:42:33.007Z,10.70
2019-04-20T20:45:07.788Z,10.70
2019-04-20T20:47:47.411Z,10.60
2019-04-20T20:50:27.206Z,10.50
2019-04-20T20:52:48.019Z,10.10
2019-04-20T20:55:15.748Z,9.80
2019-04-20T20:57:44.506Z,9.60
2019-04-20T21:00:22.679Z,9.30
2019-04-20T21:02:47.292Z,9.00
2019-04-20T21:05:13.633Z,8.90
2019-04-20T21:07:45.105Z,8.70
2019-04-20T21:10:25.667Z,8.50
2019-04-20T21:12:54.092Z,8.60
2019-04-20T21:15:22.770Z,8.60
2019-04-20T21:18:15.925Z,8.50
2019-04-20T21:20:44.429Z,8.40
2019-04-20T21:23:12.104Z,8.30
2019-04-20T21:25:37.666Z,8.30
2019-04-20T21:28:04.811Z,8.40
2019-04-20T21:30:42.802Z,8.50
2019-04-20T21:33:09.771Z,8.70
2019-04-20T21:35:43.670Z,8.80
2019-04-20T21:38:15.133Z,8.80
2019-04-20T21:40:47.201Z,8.80
2019-04-20T21:43:16.291Z,8.80
2019-04-20T21:45:52.470Z,8.70
2019-04-20T21:48:39.018Z,8.50
2019-04-20T21:51:11.583Z,8.30
2019-04-20T21:53:26.620Z,8.10
2019-04-20T21:55:55.685Z,7.80
2019-04-20T21:58:32.430Z,7.60
2019-04-20T22:01:08.041Z,7.40
2019-04-20T22:03:30.256Z,7.20
2019-04-20T22:06:04.725Z,7.00
2019-04-20T22:08:39.518Z,6.90
2019-04-20T22:11:08.177Z,6.90
2019-04-20T22:13:42.081Z,6.90
2019-04-20T22:16:13.164Z,6.80
2019-04-20T22:18:54.117Z,6.70
2019-04-20T22:21:22.554Z,6.50
2019-04-20T22:24:05.638Z,6.50
2019-04-20T22:26:30.050Z,6.50
2019-04-20T22:28:52.175Z,6.50
2019-04-20T22:31:22.729Z,6.60
2019-04-20T22:33:54.156Z,6.60
2019-04-20T22:36:34.365Z,6.60
2019-04-20T22:39:15.289Z,6.40
2019-04-20T22:42:02.411Z,6.40
2019-04-20T22:44:28.320Z,6.30
2019-04-20T22:46:58.506Z,6.10
2019-04-20T22:49:44.295Z,6.10
2019-04-20T22:52:18.127Z,6.00
2019-04-20T22:54:48.967Z,6.10
2019-04-20T22:57:17.681Z,6.10
2019-04-20T22:59:52.335Z,6.00
2019-04-20T23:02:11.742Z,6.00
2019-04-20T23:04:42.769Z,5.90
2019-04-20T23:07:14.626Z,5.90
2019-04-20T23:09:53.918Z,6.00
2019-04-20T23:12:22.721Z,6.00
2019-04-20T23:14:52.403Z,6.10
2019-04-20T23:17:30.152Z,6.20
2019-04-20T23:19:58.246Z,6.20
2019-04-20T23:22:33.650Z,6.30
2019-04-20T23:24:59.479Z,6.00
2019-04-20T23:27:32.074Z,5.70
2019-04-20T23:30:10.955Z,5.40
2019-04-20T23:32:35.746Z,5.10
2019-04-20T23:35:13.044Z,4.90
2019-04-20T23:37:40.580Z,4.60
2019-04-20T23:40:14.857Z,4.50
2019-04-20T23:42:51.754Z,4.60
2019-04-20T23:45:52.853Z,4.90
2019-04-20T23:48:43.007Z,5.30
2019-04-20T23:51:36.984Z,5.70
2019-04-20T23:53:56.804Z,6.00
2019-04-20T23:56:20.394Z,6.10
2019-04-20T23:58:53.423Z,6.30
